Etusivu
METAR-TAF:

METAR-TAF

Lentoasemat :

Chinandega, Nicaragua

Leveyspiiri: 12-38N, Pituuspiiri: 087-08W, korkeus merenpinnasta: 53 m

Tämänhetkinen sää

Tämä raportti tehtiin 12 tuntia ja 14 minuuttia sitten, kello 23.00 UTC
Tuuli 4 kn lännestä
Lämpötila 28°C
Kosteus 84%
Ilmanpaine 1011 hPa
Näkyvyys 10 km tai enemmän
Muutamia pilviä 2400 ft:n korkeudessa, Cumulonimbus.
Hajanaisia pilviä 30000 ft:n korkeudessa
ukkosmyrsky

METAR: MNCH 162300Z 26004KT 9999 TS FEW024CB SCT300 28/25 Q1011 CB/N/NE/ TCU/SE/S

Aika: 05:14 (11:14 UTC)


TAF: puuttuu

Säähavainnot ja -ennusteet yli 4000 lentoasemalta (METAR- ja TAF-raportit).

Käytössä olevat sääasemat on merkitty karttaan keltaisilla ja punaisilla pisteillä.

Aseta hiiri pisteen päälle nähdäksesi sääaseman nimen.

Klikkaa sitten nähdäksesi säähavainnot ja -ennusteet.

Kartan vaihtaminen: klikkaa mustalla rastilla varustettuja vihreitä pisteitä, niin voit zoomata sisään; viivalla varustettua vihreää pistettä, niin voit zoomata ulos tai vihreitä nuolia, niin pääset viereisille kartoille.


METAR-TAF: